createdAt,value
2023-01-17T00:05:21.135Z,95259.34
2023-01-17T00:10:27.530Z,95261.69
2023-01-17T00:15:31.462Z,95263.19
2023-01-17T00:20:52.412Z,95270.41
2023-01-17T00:26:03.875Z,95271.41
2023-01-17T00:31:08.297Z,95282.25
2023-01-17T00:36:11.693Z,95280.63
2023-01-17T00:41:15.657Z,95280.91
2023-01-17T00:46:37.166Z,95281.75
2023-01-17T00:51:57.803Z,95289.38
2023-01-17T00:57:18.824Z,95302.47
2023-01-17T01:02:40.430Z,95308.31
2023-01-17T01:08:01.717Z,95319.03
2023-01-17T01:13:22.852Z,95331.16
2023-01-17T01:18:43.693Z,95340.38
2023-01-17T01:24:04.928Z,95338.03
2023-01-17T01:29:25.931Z,95335.16
2023-01-17T01:34:28.318Z,95338.59
2023-01-17T01:39:30.808Z,95346.97
2023-01-17T01:44:47.628Z,95337.50
2023-01-17T01:49:51.113Z,95345.22
2023-01-17T01:54:58.779Z,95341.78
2023-01-17T02:00:11.763Z,95347.56
2023-01-17T02:05:20.870Z,95344.72
2023-01-17T02:10:23.313Z,95338.59
2023-01-17T02:15:31.998Z,95338.91
2023-01-17T02:20:57.251Z,95335.38
2023-01-17T02:26:10.763Z,95318.94
2023-01-17T02:31:32.612Z,95345.97
2023-01-17T02:36:46.755Z,95339.31
2023-01-17T02:42:01.041Z,95340.06
2023-01-17T02:47:22.746Z,95338.25
2023-01-17T02:52:31.513Z,95332.84
2023-01-17T02:58:16.049Z,95328.22
2023-01-17T03:03:29.101Z,95331.03
2023-01-17T03:08:32.648Z,95328.06
2023-01-17T03:13:35.422Z,95323.72
2023-01-17T03:18:38.397Z,95323.78
2023-01-17T03:23:40.871Z,95328.94
2023-01-17T03:28:43.589Z,95345.47
2023-01-17T03:33:46.743Z,95345.53
2023-01-17T03:38:49.253Z,95349.72
2023-01-17T03:43:51.722Z,95360.22
2023-01-17T03:48:54.547Z,95372.22
2023-01-17T03:53:57.012Z,95351.97
2023-01-17T03:58:59.133Z,95368.34
2023-01-17T04:04:01.585Z,95354.34
2023-01-17T04:09:04.482Z,95350.25
2023-01-17T04:14:07.065Z,95347.34
2023-01-17T04:19:13.994Z,95346.38
2023-01-17T04:24:17.889Z,95340.47
2023-01-17T04:29:20.712Z,95337.13
2023-01-17T04:34:23.057Z,95344.53
2023-01-17T04:39:25.463Z,95346.03
2023-01-17T04:44:27.484Z,95356.63
2023-01-17T04:49:29.577Z,95362.09
2023-01-17T04:54:31.828Z,95367.84
2023-01-17T04:59:34.439Z,95363.88
2023-01-17T05:04:36.524Z,95361.25
2023-01-17T05:09:38.570Z,95357.88
2023-01-17T05:14:40.548Z,95367.50
2023-01-17T05:19:42.515Z,95364.44
2023-01-17T05:24:47.702Z,95361.44
2023-01-17T05:29:49.943Z,95351.53
2023-01-17T05:34:52.019Z,95344.63
2023-01-17T05:39:54.072Z,95352.63
2023-01-17T05:44:56.074Z,95349.78
2023-01-17T05:49:58.069Z,95353.25
2023-01-17T05:55:00.097Z,95342.63
2023-01-17T06:00:02.572Z,95328.81
2023-01-17T06:05:07.467Z,95322.44
2023-01-17T06:10:10.947Z,95310.59
2023-01-17T06:15:15.709Z,95309.47
2023-01-17T06:20:17.881Z,95295.00
2023-01-17T06:25:19.936Z,95282.84
2023-01-17T06:30:22.165Z,95283.78
2023-01-17T06:35:24.417Z,95274.91
2023-01-17T06:40:29.285Z,95277.66
2023-01-17T06:45:34.119Z,95291.31
2023-01-17T06:50:36.282Z,95290.00
2023-01-17T06:55:40.438Z,95298.50
2023-01-17T07:00:42.601Z,95295.50
2023-01-17T07:05:44.822Z,95291.25
2023-01-17T07:10:48.885Z,95280.28
2023-01-17T07:15:51.079Z,95284.84
2023-01-17T07:20:54.253Z,95281.06
2023-01-17T07:26:00.499Z,95281.19
2023-01-17T07:31:10.241Z,95272.34
2023-01-17T07:36:12.236Z,95264.25
2023-01-17T07:41:17.065Z,95252.63
2023-01-17T07:46:19.360Z,95252.97
2023-01-17T07:51:21.505Z,95247.91
2023-01-17T07:56:23.925Z,95246.09
2023-01-17T08:01:26.064Z,95250.41
2023-01-17T08:06:29.824Z,95251.13
2023-01-17T08:11:32.054Z,95245.75
2023-01-17T08:16:34.567Z,95255.16
2023-01-17T08:21:36.726Z,95253.69
2023-01-17T08:26:38.726Z,95248.75
2023-01-17T08:31:40.926Z,95254.75
2023-01-17T08:36:44.202Z,95255.66
2023-01-17T08:41:46.508Z,95250.59
2023-01-17T08:46:49.081Z,95256.25
2023-01-17T08:51:52.764Z,95240.56
2023-01-17T08:56:55.769Z,95246.97
2023-01-17T09:01:58.923Z,95240.44
2023-01-17T09:07:01.093Z,95231.16
2023-01-17T09:12:03.486Z,95234.91
2023-01-17T09:17:08.806Z,95237.28
2023-01-17T09:22:12.429Z,95227.59
2023-01-17T09:27:14.424Z,95221.56
2023-01-17T09:32:17.305Z,95215.03
2023-01-17T09:37:19.297Z,95204.13
2023-01-17T09:42:25.856Z,95200.19
2023-01-17T09:47:53.932Z,95194.78
2023-01-17T09:53:03.250Z,95194.84
2023-01-17T09:58:21.230Z,95194.31
2023-01-17T10:03:40.629Z,95182.69
2023-01-17T10:09:01.004Z,95183.03
2023-01-17T10:14:31.134Z,95175.69
2023-01-17T10:19:55.534Z,95177.22
2023-01-17T10:25:13.236Z,95173.59
2023-01-17T10:30:53.792Z,95177.81
2023-01-17T10:35:59.059Z,95173.09
2023-01-17T10:41:18.451Z,95169.72
2023-01-17T10:46:31.557Z,95151.53
2023-01-17T10:52:02.022Z,95160.91
2023-01-17T10:57:04.520Z,95152.03
2023-01-17T11:02:19.067Z,95141.66
2023-01-17T11:07:29.427Z,95141.59
2023-01-17T11:12:45.015Z,95157.78
2023-01-17T11:18:15.969Z,95148.78
2023-01-17T11:23:33.363Z,95122.13
2023-01-17T11:28:37.959Z,95099.50
2023-01-17T11:33:49.232Z,95090.53
2023-01-17T11:39:17.781Z,95096.41
2023-01-17T11:44:25.837Z,95095.69
2023-01-17T11:49:30.110Z,95093.88
2023-01-17T11:54:40.350Z,95072.97
2023-01-17T11:59:45.976Z,95060.72
2023-01-17T12:05:25.961Z,95046.16
2023-01-17T12:11:05.942Z,95024.84
2023-01-17T12:16:26.916Z,95042.00
2023-01-17T12:22:15.937Z,95028.66
2023-01-17T12:27:59.896Z,95010.88
2023-01-17T12:33:23.545Z,95012.97
2023-01-17T12:38:40.259Z,95001.97
2023-01-17T12:43:44.270Z,94999.44
2023-01-17T12:48:56.592Z,94994.50
2023-01-17T12:54:16.101Z,94982.13
2023-01-17T12:59:42.822Z,94956.69
2023-01-17T13:04:59.169Z,94959.19
2023-01-17T13:10:15.501Z,94947.72
2023-01-17T13:15:24.904Z,94948.66
2023-01-17T13:20:45.833Z,94943.19
2023-01-17T13:25:51.147Z,94945.56
2023-01-17T13:31:33.752Z,94949.34
2023-01-17T13:36:48.853Z,94939.13
2023-01-17T13:41:55.077Z,94942.09
2023-01-17T13:47:27.197Z,94933.09
2023-01-17T13:52:33.408Z,94946.47
2023-01-17T13:57:43.570Z,94944.53
2023-01-17T14:02:46.656Z,94944.88
2023-01-17T14:07:59.328Z,94947.75
2023-01-17T14:13:04.395Z,94956.13
2023-01-17T14:18:38.856Z,94955.47
2023-01-17T14:23:52.430Z,94960.47
2023-01-17T14:28:57.409Z,94950.63
2023-01-17T14:34:13.602Z,94946.38
2023-01-17T14:39:22.915Z,94948.91
2023-01-17T14:44:25.109Z,94944.16
2023-01-17T14:49:27.303Z,94944.16
2023-01-17T14:54:29.902Z,94936.72
2023-01-17T14:59:32.190Z,94947.00
2023-01-17T15:04:39.659Z,94943.88
2023-01-17T15:09:43.885Z,94948.47
2023-01-17T15:14:47.011Z,94942.28
2023-01-17T15:20:06.381Z,94941.81
2023-01-17T15:25:11.759Z,94932.19
2023-01-17T15:30:16.655Z,94935.41
2023-01-17T15:35:20.121Z,94932.59
2023-01-17T15:40:25.825Z,94936.38
2023-01-17T15:45:31.250Z,94936.72
2023-01-17T15:50:39.721Z,94932.88
2023-01-17T15:55:48.446Z,94938.34
2023-01-17T16:00:50.650Z,94936.38
2023-01-17T16:05:56.910Z,94931.69
2023-01-17T16:11:03.087Z,94941.25
2023-01-17T16:16:16.787Z,94949.78
2023-01-17T16:21:31.612Z,94955.25
2023-01-17T16:26:34.129Z,94954.22
2023-01-17T16:31:36.963Z,94960.16
2023-01-17T16:36:39.265Z,94953.81
2023-01-17T16:41:41.623Z,94960.31
2023-01-17T16:46:43.809Z,94954.16
2023-01-17T16:51:47.769Z,94956.94
2023-01-17T16:56:49.945Z,94960.09
2023-01-17T17:01:53.190Z,94962.41
2023-01-17T17:06:55.542Z,94971.50
2023-01-17T17:11:57.716Z,94972.91
2023-01-17T17:17:02.589Z,94980.63
2023-01-17T17:22:08.545Z,94979.16
2023-01-17T17:27:10.573Z,94989.88
2023-01-17T17:32:12.678Z,94995.69
2023-01-17T17:37:16.128Z,95007.84
2023-01-17T17:42:20.059Z,95015.16
2023-01-17T17:47:23.997Z,95020.91
2023-01-17T17:52:26.037Z,95031.03
2023-01-17T17:57:28.037Z,95034.19
2023-01-17T18:02:31.267Z,95037.19
2023-01-17T18:07:34.441Z,95036.25
2023-01-17T18:12:36.788Z,95028.84
2023-01-17T18:17:38.758Z,95025.75
2023-01-17T18:22:41.892Z,95033.28
2023-01-17T18:27:45.137Z,95037.81
2023-01-17T18:32:49.927Z,95042.72
2023-01-17T18:37:52.467Z,95052.97
2023-01-17T18:42:54.862Z,95053.31
2023-01-17T18:47:57.119Z,95052.72
2023-01-17T18:52:59.165Z,95041.63
2023-01-17T18:58:01.206Z,95043.47
2023-01-17T19:03:03.518Z,95049.72
2023-01-17T19:08:05.713Z,95045.81
2023-01-17T19:13:07.839Z,95044.94
2023-01-17T19:18:11.308Z,95047.34
2023-01-17T19:23:13.345Z,95053.06
2023-01-17T19:28:15.354Z,95062.56
2023-01-17T19:33:17.403Z,95057.53
2023-01-17T19:38:19.378Z,95064.28
2023-01-17T19:43:21.748Z,95063.25
2023-01-17T19:48:24.804Z,95063.81
2023-01-17T19:53:26.930Z,95063.97
2023-01-17T19:58:28.958Z,95055.78
2023-01-17T20:03:31.210Z,95054.25
2023-01-17T20:08:35.589Z,95056.34
2023-01-17T20:13:37.640Z,95053.63
2023-01-17T20:18:39.770Z,95045.59
2023-01-17T20:23:44.650Z,95056.34
2023-01-17T20:28:49.872Z,95055.22
2023-01-17T20:33:55.281Z,95053.69
2023-01-17T20:38:57.555Z,95057.03
2023-01-17T20:44:01.889Z,95053.13
2023-01-17T20:49:07.602Z,95050.44
2023-01-17T20:54:14.700Z,95045.53
2023-01-17T20:59:24.488Z,95039.38
2023-01-17T21:04:26.820Z,95051.16
2023-01-17T21:09:28.870Z,95041.88
2023-01-17T21:14:31.364Z,95049.22
2023-01-17T21:19:33.825Z,95052.63
2023-01-17T21:24:35.884Z,95055.75
2023-01-17T21:29:38.144Z,95053.78
2023-01-17T21:34:40.412Z,95063.97
2023-01-17T21:39:42.449Z,95060.91
2023-01-17T21:44:45.354Z,95068.84
2023-01-17T21:49:47.631Z,95057.91
2023-01-17T21:55:08.420Z,95056.53
2023-01-17T22:00:14.677Z,95067.97
2023-01-17T22:05:18.593Z,95068.63
2023-01-17T22:10:20.649Z,95064.34
2023-01-17T22:15:23.475Z,95063.72
2023-01-17T22:20:25.685Z,95057.66
2023-01-17T22:25:27.743Z,95056.44
2023-01-17T22:30:30.059Z,95049.44
2023-01-17T22:35:32.729Z,95047.25
2023-01-17T22:40:38.268Z,95055.63
2023-01-17T22:45:40.498Z,95050.44
2023-01-17T22:50:42.470Z,95052.88
2023-01-17T22:55:44.473Z,95053.34
2023-01-17T23:00:47.453Z,95048.09
2023-01-17T23:05:49.627Z,95043.56
2023-01-17T23:11:10.467Z,95048.03
2023-01-17T23:16:31.216Z,95047.34
2023-01-17T23:21:53.366Z,95048.72
2023-01-17T23:27:13.948Z,95052.56
2023-01-17T23:32:16.814Z,95047.56
2023-01-17T23:37:18.845Z,95048.88
2023-01-17T23:42:39.597Z,95039.59
2023-01-17T23:47:44.349Z,95049.81
2023-01-17T23:52:46.555Z,95051.09
2023-01-17T23:57:51.621Z,95045.72
